Time;durP1;ratioP1;P1;durP2;ratioP2;P2;SDS_P1;SDS_P2;PMS_P1;PMS_P2;Temp;Humidity;BMP_temperature;BMP_pressure;BME280_temperature;BME280_humidity;BME280_pressure;Samples;Min_cycle;Max_cycle;Signal;HPM_P1;HPM_P2
2021/08/31 00:01:38;;;;;;;14.13;10.43;;;16.00;99.90;;;15.97;100.00;101918.56;4169998;28;20032;-70
2021/08/31 00:03:39;;;;;;;19.05;11.40;;;16.00;99.90;;;15.94;100.00;101923.38;4202842;28;20035;-70
2021/08/31 00:05:40;;;;;;;15.93;10.68;;;16.00;99.90;;;15.81;100.00;101915.00;4171014;28;20033;-67
2021/08/31 00:07:42;;;;;;;17.13;11.30;;;15.90;99.90;;;15.84;100.00;101912.03;4170413;28;20481;-67
2021/08/31 00:09:43;;;;;;;16.02;9.93;;;15.90;99.90;;;15.87;100.00;101917.03;4169733;28;20036;-67
2021/08/31 00:11:45;;;;;;;17.65;10.63;;;15.90;99.90;;;15.79;100.00;101909.03;4170841;28;20459;-69
2021/08/31 00:13:46;;;;;;;14.88;10.57;;;15.90;99.90;;;15.83;100.00;101923.69;4170761;28;20021;-70
2021/08/31 00:15:47;;;;;;;15.70;10.75;;;15.90;99.90;;;15.81;100.00;101915.00;4202506;28;20035;-70
2021/08/31 00:17:48;;;;;;;17.23;12.30;;;15.90;99.90;;;15.83;100.00;101921.03;4169719;28;20041;-70
2021/08/31 00:19:49;;;;;;;22.45;11.82;;;15.90;99.90;;;15.84;100.00;101920.84;4170727;28;20441;-70
2021/08/31 00:21:50;;;;;;;16.88;11.30;;;15.90;99.90;;;15.85;100.00;101921.69;4170757;28;20525;-70
2021/08/31 00:23:51;;;;;;;17.00;11.65;;;15.90;99.90;;;15.85;100.00;101916.34;4169152;28;20038;-70
2021/08/31 00:25:52;;;;;;;17.55;11.52;;;15.90;99.90;;;15.84;100.00;101914.69;4170673;28;20067;-70
2021/08/31 00:27:53;;;;;;;22.02;11.98;;;16.00;99.90;;;15.80;100.00;101921.34;4170846;28;20040;-70
2021/08/31 00:29:54;;;;;;;18.33;12.30;;;15.90;99.90;;;15.80;100.00;101922.16;4170640;28;20026;-70
2021/08/31 00:31:55;;;;;;;16.35;11.57;;;15.90;99.90;;;15.62;100.00;101916.09;4170500;28;20512;-70
2021/08/31 00:33:56;;;;;;;23.80;12.48;;;15.80;99.90;;;15.61;100.00;101927.75;4170605;28;20049;-70
2021/08/31 00:35:58;;;;;;;18.10;12.00;;;15.80;99.90;;;15.66;100.00;101916.63;4170614;28;20052;-70
2021/08/31 00:38:00;;;;;;;18.95;12.00;;;15.80;99.90;;;15.62;100.00;101931.25;4169112;28;20477;-70
2021/08/31 00:40:02;;;;;;;18.58;12.25;;;15.80;99.90;;;15.53;100.00;101930.34;4170526;28;20075;-70
2021/08/31 00:42:03;;;;;;;16.75;11.88;;;15.70;99.90;;;15.44;100.00;101921.47;4169293;28;20034;-70
2021/08/31 00:44:04;;;;;;;21.50;13.15;;;15.70;99.90;;;15.56;100.00;101927.38;4169153;28;20022;-70
2021/08/31 00:46:05;;;;;;;14.50;10.32;;;15.70;99.90;;;15.56;100.00;101935.34;4169197;28;20032;-70
2021/08/31 00:48:06;;;;;;;19.73;12.25;;;15.70;99.90;;;15.59;100.00;101944.88;4170345;28;20021;-70
2021/08/31 00:50:08;;;;;;;17.35;10.52;;;15.70;99.90;;;15.49;100.00;101945.81;4170434;28;20044;-70
2021/08/31 00:52:10;;;;;;;15.98;11.85;;;15.60;99.90;;;15.46;100.00;101951.41;4170110;28;20085;-70
2021/08/31 00:54:13;;;;;;;15.57;10.20;;;15.60;99.90;;;15.40;100.00;101943.22;4169103;28;20120;-70
2021/08/31 00:56:14;;;;;;;19.77;11.93;;;15.60;99.90;;;15.40;100.00;101944.06;4170212;28;20543;-70
2021/08/31 00:58:16;;;;;;;16.98;13.50;;;15.60;99.90;;;15.42;100.00;101942.06;4168965;28;20029;-70
2021/08/31 01:00:17;;;;;;;16.05;11.63;;;15.70;99.90;;;15.62;100.00;101958.66;4170291;28;20025;-70
2021/08/31 01:02:17;;;;;;;19.85;12.48;;;15.80;99.90;;;15.64;100.00;101945.22;4170235;28;20032;-70
2021/08/31 01:04:29;;;;;;;19.42;12.10;;;15.80;99.90;;;15.61;100.00;101940.22;4168307;28;20517;-70
2021/08/31 01:06:30;;;;;;;20.23;12.10;;;15.90;99.90;;;15.78;100.00;101952.56;4169051;28;20033;-70
2021/08/31 01:08:32;;;;;;;24.35;12.68;;;16.00;99.90;;;15.83;100.00;101950.28;4168519;28;20106;-70
2021/08/31 01:10:33;;;;;;;14.60;11.23;;;16.00;99.90;;;15.83;100.00;101940.44;4202008;28;20488;-69
2021/08/31 01:12:34;;;;;;;18.52;13.13;;;16.00;99.90;;;15.87;100.00;101952.44;4169950;28;20037;-70
2021/08/31 01:14:35;;;;;;;22.23;12.75;;;16.10;99.90;;;15.89;100.00;101955.78;4170020;28;20057;-70
2021/08/31 01:16:36;;;;;;;18.45;12.80;;;16.10;99.90;;;16.03;100.00;101941.03;4185252;28;20428;-70
2021/08/31 01:18:37;;;;;;;22.98;13.65;;;16.10;99.90;;;16.09;100.00;101943.03;4170002;28;20021;-70
2021/08/31 01:20:38;;;;;;;19.45;12.68;;;16.20;99.90;;;15.97;100.00;101929.22;4169825;28;20056;-70
2021/08/31 01:22:39;;;;;;;21.92;12.60;;;16.20;99.90;;;15.96;100.00;101927.53;4168539;28;20021;-69
2021/08/31 01:25:04;;;;;;;24.58;12.93;;;16.20;99.90;;;16.10;100.00;101935.91;4168801;28;20564;-70
2021/08/31 01:27:05;;;;;;;21.50;13.73;;;16.20;99.90;;;16.02;100.00;101934.88;4169746;28;20029;-70
2021/08/31 01:29:06;;;;;;;17.77;12.32;;;16.20;99.90;;;16.03;100.00;101930.38;4168795;28;20032;-70
2021/08/31 01:31:08;;;;;;;22.30;13.50;;;16.20;99.90;;;15.94;100.00;101916.22;4169911;28;20397;-69
2021/08/31 01:33:10;;;;;;;23.17;13.52;;;16.20;99.90;;;15.96;100.00;101929.34;4169803;28;20159;-70
2021/08/31 01:35:12;;;;;;;23.48;14.70;;;16.20;99.90;;;15.92;100.00;101928.00;4169619;28;20026;-70
2021/08/31 01:37:13;;;;;;;21.15;13.32;;;16.20;99.90;;;15.96;100.00;101926.69;4168355;28;20049;-70
2021/08/31 01:39:14;;;;;;;21.92;13.70;;;16.10;99.90;;;15.87;100.00;101931.16;4169572;28;20094;-70
2021/08/31 01:41:16;;;;;;;20.25;14.20;;;16.10;99.90;;;15.73;100.00;101928.28;4169652;28;20038;-70
2021/08/31 01:43:26;;;;;;;20.52;12.80;;;16.10;99.90;;;15.77;100.00;101925.13;4184659;28;20025;-69
2021/08/31 01:45:27;;;;;;;18.35;13.45;;;16.00;99.90;;;15.74;100.00;101917.47;4168412;28;20055;-70
2021/08/31 01:47:28;;;;;;;20.35;14.23;;;16.00;99.90;;;15.72;100.00;101910.66;4168306;28;20021;-70
2021/08/31 01:49:29;;;;;;;17.38;13.20;;;16.00;99.90;;;15.71;100.00;101920.44;4168232;28;20036;-70
2021/08/31 01:51:30;;;;;;;22.58;13.30;;;15.90;99.90;;;15.79;100.00;101919.66;4201115;28;20049;-69
2021/08/31 01:53:31;;;;;;;16.70;12.63;;;16.00;99.90;;;15.81;100.00;101920.31;4168033;28;20052;-70
2021/08/31 01:55:33;;;;;;;20.27;13.75;;;15.90;99.90;;;15.77;100.00;101921.66;4201113;28;20024;-70
2021/08/31 01:57:34;;;;;;;22.35;13.35;;;15.90;99.90;;;15.77;100.00;101925.13;4168174;28;20136;-70
2021/08/31 01:59:35;;;;;;;20.40;13.60;;;15.80;99.90;;;15.86;100.00;101931.34;4169100;28;20101;-70
2021/08/31 02:01:38;;;;;;;24.00;15.48;;;16.00;99.90;;;15.88;100.00;101932.00;4169356;28;20038;-70
2021/08/31 02:03:39;;;;;;;20.95;14.20;;;16.00;99.90;;;15.75;100.00;101926.28;4169319;28;20022;-70
2021/08/31 02:05:40;;;;;;;21.73;14.18;;;15.90;99.90;;;15.68;100.00;101936.72;4168027;28;20033;-70
2021/08/31 02:07:41;;;;;;;17.58;13.20;;;15.90;99.90;;;15.68;100.00;101935.94;4168722;28;20029;-70
2021/08/31 02:09:42;;;;;;;18.05;14.43;;;15.90;99.90;;;15.73;100.00;101938.94;4169156;28;20511;-70
2021/08/31 02:11:43;;;;;;;17.65;13.63;;;15.90;99.90;;;15.75;100.00;101942.25;4169121;28;20110;-69
2021/08/31 02:13:44;;;;;;;21.65;12.90;;;15.90;99.90;;;15.61;100.00;101924.25;4169116;28;20029;-69
2021/08/31 02:15:45;;;;;;;17.35;13.52;;;15.80;99.90;;;15.69;100.00;101949.06;4167224;28;20034;-70
2021/08/31 02:17:45;;;;;;;20.77;14.55;;;15.80;99.90;;;15.68;100.00;101946.56;4168530;28;20036;-70
2021/08/31 02:19:46;;;;;;;22.73;13.73;;;15.80;99.90;;;15.67;100.00;101947.56;4168997;28;20057;-70
2021/08/31 02:21:47;;;;;;;24.55;14.48;;;15.80;99.90;;;15.60;100.00;101950.00;4200724;28;20025;-70
2021/08/31 02:23:48;;;;;;;18.83;13.13;;;15.80;99.90;;;15.73;100.00;101944.25;4168561;28;20021;-70
2021/08/31 02:25:49;;;;;;;18.15;13.35;;;15.80;99.90;;;15.72;100.00;101954.06;4167640;28;20060;-70
2021/08/31 02:27:50;;;;;;;22.27;14.27;;;15.90;99.90;;;15.72;100.00;101939.91;4168913;28;20037;-70
2021/08/31 02:29:51;;;;;;;19.10;13.48;;;15.90;99.90;;;15.74;100.00;101945.94;4167530;28;20083;-70
2021/08/31 02:31:52;;;;;;;22.15;13.70;;;15.80;99.90;;;15.72;100.00;101947.91;4168716;28;20029;-70
2021/08/31 02:33:53;;;;;;;16.45;12.77;;;15.80;99.90;;;15.73;100.00;101950.41;4168589;28;20072;-70
2021/08/31 02:35:54;;;;;;;22.02;13.07;;;15.90;99.90;;;15.76;100.00;101951.91;4168742;28;20018;-70
2021/08/31 02:37:56;;;;;;;18.55;12.05;;;15.80;99.90;;;15.67;100.00;101956.38;4168507;28;20055;-70
2021/08/31 02:39:57;;;;;;;18.20;12.52;;;15.80;99.90;;;15.58;100.00;101946.69;4168705;28;20088;-70
2021/08/31 02:41:58;;;;;;;21.92;13.60;;;15.80;99.90;;;15.47;100.00;101945.13;4167463;28;20116;-70
2021/08/31 02:43:58;;;;;;;17.17;12.93;;;15.80;99.90;;;15.64;100.00;101966.50;4167470;28;20057;-70
2021/08/31 02:45:59;;;;;;;21.23;13.50;;;15.80;99.90;;;15.78;100.00;101952.56;4200480;28;20111;-70
2021/08/31 02:48:00;;;;;;;21.13;13.48;;;15.90;99.90;;;15.74;100.00;101956.56;4167424;28;20134;-70
2021/08/31 02:50:02;;;;;;;22.15;13.88;;;15.90;99.90;;;15.74;100.00;101952.06;4168580;28;20052;-70
2021/08/31 02:52:03;;;;;;;17.92;12.20;;;15.90;99.90;;;15.63;100.00;101951.50;4168309;28;20488;-70
2021/08/31 02:54:04;;;;;;;13.32;11.57;;;15.90;99.90;;;15.62;100.00;101955.19;4167440;28;20025;-68
2021/08/31 02:56:05;;;;;;;19.33;13.68;;;15.90;99.90;;;15.69;100.00;101948.22;4167381;28;20025;-67
2021/08/31 02:58:06;;;;;;;18.83;12.30;;;15.90;99.90;;;15.78;100.00;101949.91;4167079;28;20104;-67
2021/08/31 03:00:09;;;;;;;17.67;12.40;;;15.90;99.90;;;15.73;100.00;101950.41;4167310;28;20025;-67
2021/08/31 03:02:10;;;;;;;19.50;13.15;;;16.00;99.90;;;15.88;100.00;101958.63;4167417;28;20025;-69
2021/08/31 03:04:11;;;;;;;21.05;13.80;;;16.00;99.90;;;15.86;100.00;101953.44;4168568;28;20041;-67
2021/08/31 03:06:12;;;;;;;16.33;12.05;;;16.10;99.90;;;15.84;100.00;101957.25;4167193;28;20432;-70
2021/08/31 03:08:13;;;;;;;18.98;12.88;;;16.10;99.90;;;15.80;100.00;101948.75;4168294;28;20025;-70
2021/08/31 03:10:14;;;;;;;17.83;13.23;;;16.10;99.90;;;15.81;100.00;101955.75;4167340;28;20148;-70
2021/08/31 03:12:15;;;;;;;18.65;12.00;;;16.10;99.90;;;15.74;100.00;101946.75;4167195;28;20133;-69
2021/08/31 03:14:19;;;;;;;21.67;13.27;;;16.00;99.90;;;15.80;100.00;101955.94;4168327;28;20026;-70
2021/08/31 03:16:20;;;;;;;;;;;16.00;99.90;;;15.78;100.00;101952.56;4168912;28;20026;-67
2021/08/31 03:18:21;;;;;;;21.02;13.10;;;16.00;99.90;;;15.82;100.00;101970.72;4167347;28;19909;-67
2021/08/31 03:20:21;;;;;;;17.63;11.98;;;15.90;99.90;;;15.72;100.00;101959.38;4167232;28;20030;-67
2021/08/31 03:22:22;;;;;;;15.80;11.25;;;15.90;99.90;;;15.69;100.00;101964.19;4167076;28;20037;-67
2021/08/31 03:24:24;;;;;;;19.40;12.82;;;15.90;99.90;;;15.77;100.00;101964.22;4168461;28;20024;-69
2021/08/31 03:26:26;;;;;;;18.20;12.02;;;15.90;99.90;;;15.75;100.00;101958.22;4168432;28;20374;-70
2021/08/31 03:28:27;;;;;;;16.50;12.45;;;15.90;99.90;;;15.68;100.00;101951.88;4170371;28;20049;-70
2021/08/31 03:30:28;;;;;;;21.38;12.35;;;15.80;99.90;;;15.66;100.00;101961.84;4170391;28;20029;-69
2021/08/31 03:32:29;;;;;;;18.38;13.30;;;15.80;99.90;;;15.77;100.00;101964.22;4171804;28;20020;-70
2021/08/31 03:34:30;;;;;;;18.33;11.82;;;15.80;99.90;;;15.79;100.00;101949.78;4171619;28;20061;-70
2021/08/31 03:36:31;;;;;;;16.48;11.20;;;15.80;99.90;;;15.76;100.00;101950.09;4171600;28;20018;-70
2021/08/31 03:38:32;;;;;;;15.30;11.80;;;15.80;99.90;;;15.72;100.00;101954.06;4186509;28;20541;-69
2021/08/31 03:40:33;;;;;;;15.75;11.57;;;15.80;99.90;;;15.75;100.00;101951.06;4171633;28;20022;-70
2021/08/31 03:42:34;;;;;;;18.25;12.57;;;15.80;99.90;;;15.75;100.00;101944.91;4170384;28;20033;-70
2021/08/31 03:44:35;;;;;;;15.95;11.48;;;15.80;99.90;;;15.65;100.00;101947.69;4170335;28;20045;-69
2021/08/31 03:46:35;;;;;;;13.95;10.70;;;15.70;99.90;;;15.55;100.00;101956.81;4171416;28;20033;-70
2021/08/31 03:48:36;;;;;;;14.02;10.63;;;15.70;99.90;;;15.39;100.00;101953.03;4171470;28;20052;-69
2021/08/31 03:50:37;;;;;;;14.13;10.25;;;15.70;99.90;;;15.30;100.00;101953.97;4170350;28;20034;-70
2021/08/31 03:52:38;;;;;;;16.50;12.77;;;15.60;99.90;;;15.35;100.00;101956.19;4170007;28;20143;-69
2021/08/31 03:54:39;;;;;;;15.07;11.48;;;15.50;99.90;;;15.21;100.00;101948.75;4170099;28;20433;-70
2021/08/31 03:56:40;;;;;;;14.75;10.73;;;15.50;99.90;;;15.21;100.00;101960.22;4169981;28;20029;-70
2021/08/31 03:58:41;;;;;;;20.02;12.30;;;15.40;99.90;;;15.40;100.00;101962.69;4169979;28;20108;-70
2021/08/31 04:00:42;;;;;;;16.25;12.57;;;15.50;99.90;;;15.40;100.00;101960.03;4171294;28;20030;-70
2021/08/31 04:02:43;;;;;;;19.73;12.60;;;15.50;99.90;;;15.42;100.00;101958.03;4186514;28;20381;-67
2021/08/31 04:04:44;;;;;;;17.08;11.95;;;15.50;99.90;;;15.41;100.00;101953.69;4170078;28;20075;-69
2021/08/31 04:06:45;;;;;;;14.90;12.02;;;15.50;99.90;;;15.45;100.00;101962.19;4169985;28;20033;-70
2021/08/31 04:08:46;;;;;;;15.25;12.23;;;15.50;99.90;;;15.53;100.00;101961.47;4171044;28;20037;-70
2021/08/31 04:10:47;;;;;;;16.02;11.50;;;15.60;99.90;;;15.42;100.00;101955.38;4186272;28;20033;-70
2021/08/31 04:12:48;;;;;;;14.95;11.05;;;15.60;99.90;;;15.37;100.00;101956.84;4169801;28;20068;-70
2021/08/31 04:14:49;;;;;;;14.82;11.95;;;15.50;99.90;;;15.41;100.00;101963.53;4170980;28;20068;-70
2021/08/31 04:16:50;;;;;;;17.25;11.63;;;15.60;99.90;;;15.31;100.00;101960.13;4170991;28;20029;-70
2021/08/31 04:18:51;;;;;;;17.70;12.95;;;15.50;99.90;;;15.40;100.00;101960.03;4170899;28;20040;-70
2021/08/31 04:20:52;;;;;;;17.40;12.27;;;15.50;99.90;;;15.52;100.00;101959.78;4170768;28;20075;-70
2021/08/31 04:22:54;;;;;;;15.75;10.90;;;15.50;99.90;;;15.36;100.00;101969.28;4185916;28;20043;-70
2021/08/31 04:24:55;;;;;;;18.58;12.38;;;15.50;99.90;;;15.38;100.00;101971.81;4169700;28;20033;-69
2021/08/31 04:26:56;;;;;;;17.67;12.88;;;15.50;99.90;;;15.37;100.00;101970.97;4170842;28;20044;-70
2021/08/31 04:28:57;;;;;;;16.02;10.93;;;15.50;99.90;;;15.29;100.00;101976.22;4169411;28;20027;-70
2021/08/31 04:30:57;;;;;;;17.77;12.15;;;15.50;99.90;;;15.35;100.00;101977.44;4169607;28;20065;-70
2021/08/31 04:32:59;;;;;;;16.25;11.40;;;15.50;99.90;;;15.29;100.00;101973.56;4169545;28;20393;-67
2021/08/31 04:35:03;;;;;;;14.57;11.90;;;15.60;99.90;;;15.47;100.00;101976.22;4170692;28;20048;-69
2021/08/31 04:37:04;;;;;;;15.40;12.32;;;15.60;99.90;;;15.53;100.00;101970.25;4170330;28;20053;-70
2021/08/31 04:39:04;;;;;;;19.33;11.65;;;15.60;99.90;;;15.60;99.62;101975.75;4168682;28;20033;-70
2021/08/31 04:41:05;;;;;;;13.48;11.20;;;15.70;99.90;;;15.60;99.64;101976.59;4170462;28;20025;-70
2021/08/31 04:43:06;;;;;;;14.93;11.10;;;15.70;99.90;;;15.58;99.85;101973.28;4170619;28;20022;-69
2021/08/31 04:45:08;;;;;;;15.13;10.90;;;15.70;99.90;;;15.54;99.61;101981.72;4170451;28;20021;-70
2021/08/31 04:47:09;;;;;;;16.58;11.80;;;15.70;99.90;;;15.58;99.21;101980.41;4170628;28;20105;-70
2021/08/31 04:49:09;;;;;;;15.70;11.40;;;15.70;99.90;;;15.60;99.61;101981.09;4169386;28;20026;-70
2021/08/31 04:51:11;;;;;;;16.08;10.63;;;15.80;99.90;;;15.60;98.99;101978.44;4170511;28;20033;-70
2021/08/31 04:53:11;;;;;;;12.32;9.50;;;15.80;99.90;;;15.56;99.80;101977.09;4168910;28;20040;-70
2021/08/31 04:55:12;;;;;;;13.98;10.52;;;15.80;99.90;;;15.56;99.81;101979.75;4169175;28;20440;-70
2021/08/31 04:57:13;;;;;;;11.35;10.05;;;15.80;99.90;;;15.62;99.55;101981.78;4169242;28;20029;-70
2021/08/31 04:59:14;;;;;;;12.77;10.40;;;15.80;99.90;;;15.65;98.95;101981.47;4170256;28;20050;-69
2021/08/31 05:01:15;;;;;;;15.65;11.40;;;15.80;99.90;;;15.66;98.40;101986.63;4168748;28;20021;-70
2021/08/31 05:03:16;;;;;;;13.50;9.80;;;15.90;99.90;;;15.69;98.53;101980.97;4168968;28;20497;-70
2021/08/31 05:05:17;;;;;;;14.75;10.13;;;15.90;99.90;;;15.67;98.76;101982.13;4202032;28;20450;-70
2021/08/31 05:07:18;;;;;;;12.40;9.73;;;15.90;99.90;;;15.62;99.36;101985.25;4169914;28;20052;-70
2021/08/31 05:09:19;;;;;;;10.35;9.18;;;15.90;99.90;;;15.53;99.00;101966.78;4170035;28;20393;-67
2021/08/31 05:11:22;;;;;;;11.13;9.35;;;15.90;99.90;;;15.68;98.52;101989.13;4170121;28;20033;-69
2021/08/31 05:13:23;;;;;;;14.65;9.57;;;15.90;99.90;;;15.72;98.69;101995.78;4201964;28;20056;-70
2021/08/31 05:15:24;;;;;;;16.10;11.02;;;15.90;99.90;;;15.73;97.69;101981.50;4168747;28;20045;-67
2021/08/31 05:17:25;;;;;;;14.50;10.13;;;15.90;99.90;;;15.70;98.61;101992.44;4168582;28;20021;-69
2021/08/31 05:19:26;;;;;;;13.20;10.40;;;15.90;99.90;;;15.79;98.10;101994.16;4170074;28;20032;-69
2021/08/31 05:21:28;;;;;;;15.98;9.95;;;16.00;99.90;;;15.75;97.78;101995.47;4169636;28;20026;-70
2021/08/31 05:23:30;;;;;;;10.75;9.32;;;16.00;99.90;;;15.79;97.96;101999.47;4184894;28;20033;-69
2021/08/31 05:25:32;;;;;;;17.05;10.77;;;16.00;99.90;;;15.77;97.39;101988.97;4168617;28;20029;-70
2021/08/31 05:27:33;;;;;;;14.68;10.15;;;16.00;99.90;;;15.79;97.74;101994.16;4168582;28;20025;-70
2021/08/31 05:29:34;;;;;;;12.18;10.27;;;16.10;99.90;;;15.79;97.70;101996.81;4169868;28;20656;-70
2021/08/31 05:31:35;;;;;;;12.20;8.88;;;16.00;99.90;;;15.84;97.65;101991.84;4168625;28;20532;-69
2021/08/31 05:33:36;;;;;;;15.65;10.25;;;16.10;99.90;;;15.89;97.28;101989.53;4184679;28;20060;-70
2021/08/31 05:35:37;;;;;;;12.63;10.23;;;16.10;99.90;;;15.88;96.96;101994.03;4169603;28;20079;-70
2021/08/31 05:37:39;;;;;;;15.05;10.88;;;16.10;99.90;;;15.84;97.15;101986.53;4169311;28;20393;-70
2021/08/31 05:39:40;;;;;;;12.07;9.52;;;16.20;99.90;;;15.87;96.79;101983.53;4201343;28;20130;-69
2021/08/31 05:41:41;;;;;;;11.13;8.65;;;16.20;99.90;;;15.87;97.58;101995.03;4168386;28;20548;-70
2021/08/31 05:43:42;;;;;;;14.52;9.48;;;16.20;99.90;;;15.92;96.91;101997.19;4201237;28;20542;-69
2021/08/31 05:45:43;;;;;;;13.88;10.40;;;16.20;99.90;;;15.98;96.48;102007.19;4151828;28;20029;-69
2021/08/31 05:47:44;;;;;;;11.52;8.68;;;16.20;99.90;;;15.94;97.06;101995.22;4169230;28;20033;-69
2021/08/31 05:49:45;;;;;;;11.75;9.52;;;16.30;99.90;;;15.95;96.40;101992.38;4201112;28;20016;-69
2021/08/31 05:51:45;;;;;;;15.10;10.50;;;16.30;99.90;;;15.98;96.75;102005.38;4200734;28;20035;-69
2021/08/31 05:53:46;;;;;;;10.93;9.05;;;16.30;99.90;;;16.01;96.57;102005.06;4169304;28;20091;-69
2021/08/31 05:55:47;;;;;;;11.55;8.48;;;16.30;99.90;;;16.04;96.39;102010.06;4200914;28;20035;-70
2021/08/31 05:57:48;;;;;;;12.63;9.02;;;16.30;99.90;;;16.12;96.46;102013.75;4168256;28;20032;-69
2021/08/31 05:59:49;;;;;;;9.70;8.55;;;16.40;99.90;;;16.12;95.50;102009.28;4167655;28;20050;-70
2021/08/31 06:01:50;;;;;;;13.98;9.35;;;16.40;99.90;;;16.17;95.11;102019.44;4201196;28;20025;-70
2021/08/31 06:03:51;;;;;;;12.00;9.20;;;16.50;99.90;;;16.11;95.80;102020.06;4168140;28;20402;-70
2021/08/31 06:05:52;;;;;;;12.63;8.57;;;16.50;99.90;;;16.11;96.27;102015.59;4169213;28;20075;-69
2021/08/31 06:07:54;;;;;;;10.15;8.77;;;16.50;99.90;;;16.20;95.55;102019.94;4200450;28;20044;-70
2021/08/31 06:09:57;;;;;;;10.65;8.07;;;16.60;99.90;;;16.19;95.63;102025.44;4169279;28;20025;-70
2021/08/31 06:11:58;;;;;;;10.57;8.50;;;16.60;99.90;;;16.23;95.70;102022.28;4169084;28;20021;-70
2021/08/31 06:13:59;;;;;;;11.65;8.88;;;16.60;99.90;;;16.33;95.08;102024.81;4169293;28;20377;-70
2021/08/31 06:16:00;;;;;;;10.90;8.02;;;16.60;99.90;;;16.30;94.78;102015.31;4200669;28;20028;-69
2021/08/31 06:18:01;;;;;;;10.77;8.07;;;16.70;99.90;;;16.33;95.23;102024.81;4169038;28;20203;-70
2021/08/31 06:20:02;;;;;;;9.57;7.63;;;16.70;99.90;;;16.37;95.14;102024.31;4168923;28;20609;-70
2021/08/31 06:22:04;;;;;;;9.07;7.85;;;16.80;99.90;;;16.46;95.03;102017.16;4168854;28;20097;-70
2021/08/31 06:24:05;;;;;;;11.20;8.50;;;16.80;99.90;;;16.37;95.21;102007.50;4168755;28;20022;-70
2021/08/31 06:26:06;;;;;;;12.35;8.65;;;16.90;99.90;;;16.49;93.81;102019.50;4200734;28;20092;-70
2021/08/31 06:28:07;;;;;;;11.70;8.57;;;16.90;99.90;;;16.41;94.22;102015.00;4168743;28;20032;-71
2021/08/31 06:30:08;;;;;;;9.68;7.53;;;17.00;99.90;;;16.53;93.81;102013.69;4168537;28;20032;-70
2021/08/31 06:32:09;;;;;;;12.15;8.75;;;16.90;99.90;;;16.53;93.17;102019.03;4168212;28;20030;-70
2021/08/31 06:34:10;;;;;;;11.75;8.55;;;17.00;99.90;;;16.41;93.81;102017.69;4167690;28;20030;-70
2021/08/31 06:36:12;;;;;;;11.82;8.27;;;17.10;99.90;;;16.57;93.82;102025.75;4168656;28;20033;-69
2021/08/31 06:38:13;;;;;;;9.85;8.32;;;17.10;99.90;;;16.61;92.45;102025.41;4168294;28;20021;-70
2021/08/31 06:40:14;;;;;;;11.32;7.95;;;17.20;99.90;;;16.63;92.24;102034.06;4168787;28;20507;-70
2021/08/31 06:42:15;;;;;;;7.78;6.80;;;17.20;99.90;;;16.72;92.16;102033.94;4168799;28;20036;-70
2021/08/31 06:44:16;;;;;;;9.55;6.53;;;17.30;99.90;;;16.73;90.93;102024.06;4200617;28;20027;-70
2021/08/31 06:46:17;;;;;;;9.70;6.85;;;17.30;99.90;;;16.87;90.35;102037.59;4167398;28;20030;-70
2021/08/31 06:48:18;;;;;;;7.65;6.65;;;17.40;99.90;;;16.92;90.39;102029.09;4200344;28;20024;-70
2021/08/31 06:50:19;;;;;;;9.77;7.22;;;17.50;99.90;;;16.95;88.56;102032.28;4168703;28;20022;-70
2021/08/31 06:52:20;;;;;;;10.70;6.57;;;17.50;99.90;;;16.96;88.23;102028.63;4168458;28;20061;-70
2021/08/31 06:54:21;;;;;;;8.07;6.20;;;17.60;99.90;;;17.09;87.31;102044.09;4168464;28;20049;-70
2021/08/31 06:56:22;;;;;;;10.43;6.10;;;17.60;99.90;;;17.09;87.56;102042.25;4168310;28;20038;-70
2021/08/31 06:58:23;;;;;;;7.60;5.70;;;17.70;99.90;;;17.16;86.62;102042.44;4168440;28;20080;-70
2021/08/31 07:00:23;;;;;;;10.32;6.38;;;17.80;99.90;;;17.05;86.29;102048.91;4183644;28;20095;-70
2021/08/31 07:02:24;;;;;;;8.00;5.72;;;17.80;99.90;;;17.14;85.67;102055.91;4168023;28;20029;-70
2021/08/31 07:04:25;;;;;;;9.30;5.47;;;17.90;99.90;;;17.08;85.19;102048.59;4168386;28;20068;-70
2021/08/31 07:06:26;;;;;;;8.85;6.10;;;17.90;99.90;;;17.00;85.10;102061.09;4168601;28;20029;-70
2021/08/31 07:08:27;;;;;;;7.03;5.22;;;17.90;99.90;;;16.99;85.27;102060.25;4168254;28;20104;-70
2021/08/31 07:10:28;;;;;;;8.50;5.35;;;17.90;99.90;;;17.17;85.38;102056.59;4168399;28;20116;-70
2021/08/31 07:12:29;;;;;;;7.18;4.78;;;18.00;99.90;;;17.23;84.26;102048.78;4168319;28;20021;-70
2021/08/31 07:14:30;;;;;;;5.53;4.55;;;18.00;99.90;;;17.21;83.42;102040.09;4200198;28;20044;-70
2021/08/31 07:16:31;;;;;;;6.22;4.40;;;18.10;99.90;;;17.29;81.68;102056.09;4167340;28;20503;-70
2021/08/31 07:18:32;;;;;;;11.27;4.68;;;18.10;99.90;;;17.27;82.05;102060.75;4168465;28;20037;-70
2021/08/31 07:20:33;;;;;;;9.00;4.28;;;18.20;99.90;;;17.23;81.19;102054.09;4168433;28;20021;-70
2021/08/31 07:22:34;;;;;;;7.40;4.00;;;18.30;99.90;;;17.33;81.83;102056.56;4199964;28;20115;-70
2021/08/31 07:24:35;;;;;;;7.15;4.68;;;18.20;99.90;;;17.40;81.02;102062.91;4168514;28;20033;-70
2021/08/31 07:26:36;;;;;;;7.15;4.18;;;18.30;99.90;;;17.25;79.99;102059.25;4168335;28;20494;-70
2021/08/31 07:28:37;;;;;;;5.93;4.13;;;18.30;99.90;;;17.43;80.03;102063.41;4200116;28;20031;-70
2021/08/31 07:30:38;;;;;;;6.28;4.55;;;18.30;99.90;;;17.36;79.26;102061.56;4168258;28;20033;-70
2021/08/31 07:32:39;;;;;;;6.72;4.15;;;18.30;99.90;;;17.40;79.34;102066.41;4168221;28;20392;-70
2021/08/31 07:34:40;;;;;;;7.55;3.90;;;18.40;99.90;;;17.22;79.43;102073.75;4168225;28;20065;-70
2021/08/31 07:36:41;;;;;;;7.32;4.00;;;18.30;99.90;;;17.12;80.01;102065.94;4167859;28;20018;-70
2021/08/31 07:38:41;;;;;;;5.00;3.85;;;18.20;99.90;;;17.32;79.26;102063.78;4168046;28;20029;-70
2021/08/31 07:40:42;;;;;;;7.32;4.03;;;18.20;99.90;;;17.27;79.31;102065.25;4168361;28;20029;-70
2021/08/31 07:42:43;;;;;;;5.75;4.28;;;18.30;99.90;;;17.53;79.90;102072.06;4168221;28;20522;-70
2021/08/31 07:44:44;;;;;;;5.97;4.25;;;18.30;99.90;;;17.59;78.44;102057.28;4168160;28;20025;-70
2021/08/31 07:46:46;;;;;;;10.80;4.43;;;18.40;99.90;;;17.50;78.90;102053.72;4168245;28;20032;-70
2021/08/31 07:48:47;;;;;;;6.63;4.35;;;18.40;99.90;;;17.58;79.43;102059.09;4168219;28;20109;-70
2021/08/31 07:50:48;;;;;;;5.38;3.90;;;18.50;99.90;;;17.58;79.15;102053.75;4167060;28;20137;-70
2021/08/31 07:52:49;;;;;;;9.88;5.03;;;18.50;99.90;;;17.68;77.79;102054.38;4166740;28;20065;-70
2021/08/31 07:54:50;;;;;;;7.22;4.40;;;18.60;99.90;;;17.62;78.94;102047.06;4167828;28;20030;-70
2021/08/31 07:56:51;;;;;;;9.45;4.97;;;18.60;99.90;;;17.89;77.91;102050.34;4168058;28;20084;-70
2021/08/31 07:58:52;;;;;;;6.60;4.28;;;18.70;99.90;;;17.95;78.17;102061.16;4168099;28;20133;-70
2021/08/31 08:00:53;;;;;;;5.72;4.15;;;18.80;99.90;;;18.00;78.18;102058.81;4168041;28;20018;-70
2021/08/31 08:02:54;;;;;;;6.88;4.40;;;18.90;99.90;;;17.94;77.58;102056.00;4167916;28;20025;-70
2021/08/31 08:04:58;;;;;;;8.57;4.70;;;18.90;99.90;;;17.92;78.61;102050.00;4167936;28;20104;-70
2021/08/31 08:06:59;;;;;;;7.93;4.25;;;19.00;99.90;;;17.84;77.71;102058.03;4167751;28;20034;-70
2021/08/31 08:09:01;;;;;;;6.72;4.35;;;19.00;99.90;;;17.84;77.75;102048.19;4167889;28;20503;-70
2021/08/31 08:11:02;;;;;;;6.35;4.35;;;19.00;99.90;;;18.19;77.85;102055.72;4168043;28;20497;-70
2021/08/31 08:13:03;;;;;;;8.15;4.43;;;19.10;99.90;;;18.10;77.35;102059.44;4167878;28;20111;-70
2021/08/31 08:15:05;;;;;;;7.25;4.63;;;19.20;99.90;;;18.19;76.76;102063.72;4170730;28;20060;-70